Time;durP1;ratioP1;P1;durP2;ratioP2;P2;SDS_P1;SDS_P2;PMS_P1;PMS_P2;Temp;Humidity;BMP_temperature;BMP_pressure;BME280_temperature;BME280_humidity;BME280_pressure;Samples;Min_cycle;Max_cycle;Signal;HPM_P1;HPM_P2
2021/10/24 00:01:55;;;;;;;13.00;7.90;;;2.10;93.60;;;0.52;97.34;99219.75;5047299;28;20548;-76
2021/10/24 00:04:24;;;;;;;10.97;7.93;;;2.10;93.40;;;0.47;97.98;99225.41;5050120;28;20539;-75
2021/10/24 00:06:50;;;;;;;10.63;6.80;;;2.00;93.40;;;0.34;97.44;99201.63;5048833;28;20506;-76
2021/10/24 00:09:17;;;;;;;13.60;7.73;;;2.10;93.10;;;0.34;97.90;99222.03;5049872;28;20468;-75
2021/10/24 00:11:44;;;;;;;11.50;7.97;;;2.00;92.90;;;0.36;97.91;99230.72;5061897;28;20476;-76
2021/10/24 00:14:11;;;;;;;10.83;7.87;;;1.90;93.50;;;0.38;97.91;99228.78;5051070;28;20464;-76
2021/10/24 00:16:39;;;;;;;16.00;9.77;;;1.90;93.40;;;0.38;97.76;99224.34;5047267;28;20467;-76
2021/10/24 00:19:06;;;;;;;10.67;8.13;;;1.90;93.60;;;0.43;97.61;99237.28;5042839;28;20459;-77
2021/10/24 00:21:34;;;;;;;13.30;9.00;;;2.00;93.20;;;0.44;97.21;99223.00;5049170;28;20522;-76
2021/10/24 00:24:01;;;;;;;16.63;7.37;;;2.00;93.00;;;0.41;97.88;99231.22;5041312;28;20491;-77
2021/10/24 00:26:31;;;;;;;16.60;8.60;;;2.00;93.10;;;0.36;98.06;99231.59;5042685;28;21028;-76
2021/10/24 00:28:58;;;;;;;12.13;7.40;;;1.90;93.00;;;0.43;97.15;99231.94;5045871;28;20456;-76
2021/10/24 00:31:26;;;;;;;11.40;7.73;;;2.00;92.80;;;0.29;97.37;99222.38;5048488;28;20887;-76
2021/10/24 00:33:54;;;;;;;10.03;7.70;;;2.00;92.50;;;0.34;97.85;99227.34;5042465;28;20520;-75
2021/10/24 00:36:21;;;;;;;15.53;7.10;;;1.90;92.90;;;0.18;97.52;99223.22;5078176;28;20460;-75
2021/10/24 00:38:50;;;;;;;11.07;7.47;;;1.90;92.40;;;0.12;97.94;99221.06;5051425;28;20447;-76
2021/10/24 00:41:18;;;;;;;10.40;7.37;;;1.80;92.50;;;0.06;98.49;99213.53;5059892;28;20462;-75
2021/10/24 00:43:45;;;;;;;12.63;8.57;;;1.70;94.70;;;0.13;98.50;99220.91;5049987;28;20480;-76
2021/10/24 00:46:12;;;;;;;10.90;8.10;;;1.70;94.50;;;0.17;98.48;99232.16;5049553;28;20550;-76
2021/10/24 00:48:39;;;;;;;13.30;8.57;;;1.70;94.30;;;0.14;97.99;99211.97;5045956;28;20552;-75
2021/10/24 00:51:06;;;;;;;16.43;9.43;;;1.70;93.90;;;-0.10;98.12;99172.22;5045902;28;20499;-75
2021/10/24 00:53:33;;;;;;;15.53;9.20;;;1.70;93.40;;;0.08;97.94;99199.16;5059794;28;20571;-75
2021/10/24 00:56:02;;;;;;;11.80;7.40;;;1.70;93.00;;;0.04;98.34;99215.47;5059187;28;20444;-76
2021/10/24 00:58:30;;;;;;;12.20;8.13;;;1.70;93.10;;;0.07;97.96;99204.59;5064697;28;20963;-77
2021/10/24 01:00:57;;;;;;;11.77;7.50;;;1.60;93.50;;;0.07;98.03;99193.97;5046849;28;21052;-76
2021/10/24 01:03:24;;;;;;;12.20;6.93;;;1.70;93.60;;;0.08;97.63;99199.16;5045066;28;20473;-75
2021/10/24 01:05:51;;;;;;;9.97;7.30;;;1.60;93.60;;;-0.01;98.29;99192.75;5041662;28;20477;-75
2021/10/24 01:08:18;;;;;;;8.63;7.03;;;1.60;93.00;;;-0.10;98.88;99192.63;5049089;28;20596;-75
2021/10/24 01:10:46;;;;;;;10.40;7.63;;;1.50;93.50;;;-0.29;99.00;99170.16;5049249;28;20590;-75
2021/10/24 01:13:14;;;;;;;15.30;8.77;;;1.40;94.40;;;-0.13;98.77;99183.06;5061861;28;20812;-75
2021/10/24 01:15:43;;;;;;;10.77;8.40;;;1.40;94.80;;;-0.83;98.53;99079.50;5048401;28;20475;-75
2021/10/24 01:18:11;;;;;;;11.83;7.60;;;1.40;93.70;;;-0.45;99.02;99146.56;5049338;28;20456;-75
2021/10/24 01:20:38;;;;;;;15.07;7.87;;;1.30;95.00;;;-0.27;99.33;99159.38;5050264;28;20479;-75
2021/10/24 01:23:06;;;;;;;11.17;7.63;;;1.30;96.40;;;-0.14;99.10;99178.72;5047354;28;20461;-76
2021/10/24 01:25:33;;;;;;;11.30;7.30;;;1.40;95.20;;;-0.18;98.91;99166.66;5045022;28;20975;-75
2021/10/24 01:28:00;;;;;;;13.73;8.20;;;1.40;94.40;;;-0.18;98.56;99169.31;5049166;28;20452;-75
2021/10/24 01:30:27;;;;;;;9.70;7.60;;;1.40;94.40;;;-0.20;99.39;99161.44;5052866;28;20496;-75
2021/10/24 01:32:54;;;;;;;11.43;8.07;;;1.40;95.70;;;-0.21;98.58;99164.25;5047064;28;20480;-75
2021/10/24 01:35:21;;;;;;;13.93;7.53;;;1.40;94.10;;;-0.37;98.64;99138.84;5080647;28;20451;-75
2021/10/24 01:37:49;;;;;;;8.50;7.10;;;1.40;94.20;;;-0.31;98.76;99154.31;5062080;28;20491;-75
2021/10/24 01:40:19;;;;;;;12.47;6.70;;;1.30;94.40;;;-0.22;98.63;99170.53;5046007;28;20488;-75
2021/10/24 01:42:54;;;;;;;14.90;7.70;;;1.30;94.90;;;-0.23;98.94;99174.13;5040984;28;20587;-75
2021/10/24 01:45:23;;;;;;;8.90;6.27;;;1.40;94.30;;;-0.20;98.71;99173.91;5043496;28;20466;-75
2021/10/24 01:47:51;;;;;;;9.30;6.77;;;1.30;94.40;;;-0.25;98.45;99173.38;5041565;28;20506;-75
2021/10/24 01:50:19;;;;;;;12.13;7.40;;;1.30;93.40;;;-0.35;98.58;99174.13;5044843;28;20869;-75
2021/10/24 01:52:47;;;;;;;14.17;7.37;;;1.20;93.60;;;-0.43;98.79;99160.56;5046076;28;20466;-75
2021/10/24 01:55:15;;;;;;;9.17;6.70;;;1.20;93.90;;;-0.40;99.00;99157.66;5039683;28;20490;-75
2021/10/24 01:57:46;;;;;;;12.10;6.43;;;1.20;94.80;;;-0.38;98.55;99158.41;5040988;28;20895;-75
2021/10/24 02:00:15;;;;;;;10.30;6.53;;;1.20;94.60;;;-0.67;98.61;99097.75;5041343;28;20542;-75
2021/10/24 02:02:42;;;;;;;9.00;6.03;;;1.30;94.40;;;-0.36;98.38;99145.88;5038297;28;20460;-74
2021/10/24 02:05:10;;;;;;;7.97;5.90;;;1.20;93.70;;;-0.46;98.37;99144.88;5043422;28;20455;-76
2021/10/24 02:07:37;;;;;;;8.87;6.53;;;1.30;93.60;;;-0.36;98.67;99148.53;5041350;28;20475;-77
2021/10/24 02:10:07;;;;;;;7.03;6.33;;;1.30;93.90;;;-0.37;98.78;99157.44;5037933;28;20448;-75
2021/10/24 02:12:34;;;;;;;10.67;5.70;;;1.20;93.70;;;-0.34;98.30;99166.97;5038301;28;20545;-77
2021/10/24 02:15:04;;;;;;;12.40;6.90;;;1.20;93.40;;;-0.30;97.94;99155.16;5049116;28;20559;-77
2021/10/24 02:17:31;;;;;;;14.97;6.33;;;1.30;93.70;;;-0.44;97.56;99132.31;5046503;28;20546;-76
2021/10/24 02:19:58;;;;;;;21.57;6.67;;;1.30;92.80;;;-0.31;98.34;99154.31;5026648;28;21004;-76
2021/10/24 02:22:25;;;;;;;8.73;6.07;;;1.30;93.20;;;-0.40;98.17;99127.63;5042229;28;20483;-75
2021/10/24 02:24:53;;;;;;;10.70;6.10;;;1.30;93.40;;;-0.37;98.58;99151.28;5045442;28;20501;-76
2021/10/24 02:27:20;;;;;;;9.03;6.20;;;1.30;92.90;;;-0.39;98.37;99146.06;5046698;28;20535;-75
2021/10/24 02:29:48;;;;;;;7.67;5.97;;;1.20;93.60;;;-0.38;98.71;99149.59;5050252;28;20452;-76
2021/10/24 02:32:17;;;;;;;6.97;6.27;;;1.20;94.10;;;-0.26;98.61;99150.44;5072599;28;20902;-76
2021/10/24 02:34:45;;;;;;;8.67;5.60;;;1.30;94.20;;;-0.34;98.45;99138.63;5045163;28;20467;-76
2021/10/24 02:37:12;;;;;;;8.13;6.13;;;1.30;93.60;;;-0.32;98.50;99139.34;5048087;28;20451;-76
2021/10/24 02:39:39;;;;;;;9.60;5.73;;;1.30;93.20;;;-0.31;98.32;99135.72;5060678;28;20458;-76
2021/10/24 02:42:06;;;;;;;8.30;6.70;;;1.30;93.50;;;-0.34;98.56;99133.31;5079134;28;20455;-75
2021/10/24 02:44:34;;;;;;;9.50;6.30;;;1.30;93.60;;;-0.24;98.40;99140.53;5048742;28;20563;-75
2021/10/24 02:47:02;;;;;;;10.03;6.50;;;1.30;93.70;;;-0.31;98.01;99130.41;5047846;28;20479;-76
2021/10/24 02:49:31;;;;;;;10.57;6.37;;;1.30;93.50;;;-0.25;98.47;99131.75;5065512;28;20524;-76
2021/10/24 02:51:58;;;;;;;9.10;6.53;;;1.30;93.70;;;-0.75;98.35;99062.97;5050687;28;20475;-75
2021/10/24 02:54:26;;;;;;;12.33;6.60;;;1.30;93.80;;;-0.34;98.86;99132.44;5051100;28;20966;-75
2021/10/24 02:56:53;;;;;;;6.70;6.00;;;1.30;93.90;;;-0.46;98.41;99128.94;5047688;28;20462;-74
2021/10/24 02:59:22;;;;;;;9.00;6.80;;;1.20;93.40;;;-0.43;98.53;99118.94;5050686;28;20467;-75
2021/10/24 03:01:50;;;;;;;10.53;7.30;;;1.20;94.00;;;-0.38;98.52;99121.25;5046155;28;23146;-75
2021/10/24 03:04:17;;;;;;;8.93;6.43;;;1.20;93.90;;;-0.40;98.69;99123.13;5051254;28;20467;-75
2021/10/24 03:06:45;;;;;;;9.20;6.17;;;1.30;93.20;;;-0.42;98.26;99127.72;5051378;28;20469;-75
2021/10/24 03:09:12;;;;;;;12.70;6.90;;;1.20;93.40;;;-0.56;97.70;99110.22;5048616;28;20452;-74
2021/10/24 03:11:40;;;;;;;9.00;7.00;;;1.20;93.00;;;-0.51;98.28;99121.31;5056279;28;20519;-76
2021/10/24 03:14:07;;;;;;;9.23;6.80;;;1.20;93.00;;;-0.50;98.56;99116.88;5051511;28;20543;-76
2021/10/24 03:16:34;;;;;;;9.50;6.03;;;1.10;93.70;;;-0.59;98.88;99100.66;5052781;28;20471;-75
2021/10/24 03:19:02;;;;;;;8.00;6.30;;;1.10;93.70;;;-0.54;98.75;99116.25;5049779;28;20582;-76
2021/10/24 03:21:30;;;;;;;13.13;6.87;;;1.10;93.80;;;-0.61;98.51;99109.69;5084892;28;20591;-77
2021/10/24 03:24:00;;;;;;;10.33;6.30;;;1.00;93.70;;;-0.63;98.52;99093.91;5052041;28;20460;-76
2021/10/24 03:26:28;;;;;;;12.87;7.37;;;1.10;94.20;;;-0.49;98.57;99118.56;5073700;28;20448;-75
2021/10/24 03:28:55;;;;;;;10.47;7.40;;;1.10;94.20;;;-0.48;98.69;99121.06;5047933;28;20451;-76
2021/10/24 03:31:22;;;;;;;9.33;6.87;;;1.10;94.10;;;-0.51;99.10;99110.69;5070641;28;20577;-76
2021/10/24 03:33:49;;;;;;;8.80;7.03;;;1.10;93.90;;;-0.59;98.25;99113.09;5049394;28;20486;-76
2021/10/24 03:36:16;;;;;;;9.20;6.50;;;1.00;93.40;;;-0.56;98.75;99118.19;5066846;28;20451;-76
2021/10/24 03:38:43;;;;;;;8.43;6.57;;;1.00;94.10;;;-0.68;98.87;99092.56;5048985;28;20872;-77
2021/10/24 03:41:15;;;;;;;9.70;6.50;;;1.00;94.50;;;-0.96;98.41;99062.81;5059910;28;20468;-76
2021/10/24 03:43:43;;;;;;;10.00;6.70;;;1.00;93.60;;;-0.65;99.12;99113.56;5050055;28;20815;-75
2021/10/24 03:46:10;;;;;;;7.63;6.83;;;0.90;94.30;;;-0.64;98.44;99113.44;5047603;28;20955;-76
2021/10/24 03:48:37;;;;;;;10.80;6.80;;;1.00;94.10;;;-0.66;98.74;99102.09;5059907;28;20475;-76
2021/10/24 03:51:04;;;;;;;10.43;6.20;;;1.00;94.00;;;-1.07;98.38;99045.03;5043704;28;20488;-76
2021/10/24 03:53:31;;;;;;;10.03;7.00;;;1.00;93.70;;;-1.01;98.78;99068.44;5044669;28;20476;-76
2021/10/24 03:55:58;;;;;;;9.27;7.47;;;0.90;94.10;;;-0.78;98.28;99106.50;5050903;28;20457;-76
2021/10/24 03:58:28;;;;;;;9.60;7.07;;;0.90;94.30;;;-0.72;98.75;99118.47;5048572;28;20464;-76
2021/10/24 04:00:55;;;;;;;11.90;6.90;;;0.90;94.20;;;-0.69;99.19;99112.94;5041733;28;20766;-77
2021/10/24 04:03:22;;;;;;;8.77;6.83;;;0.90;94.40;;;-0.71;99.13;99117.50;5045134;28;20466;-75
2021/10/24 04:05:49;;;;;;;8.80;6.57;;;0.90;94.00;;;-0.70;98.88;99110.41;5050306;28;20470;-76
2021/10/24 04:08:17;;;;;;;9.93;6.87;;;0.90;94.30;;;-0.74;98.52;99109.78;5044106;28;20468;-75
2021/10/24 04:10:45;;;;;;;10.60;7.13;;;0.90;93.70;;;-0.74;99.22;99105.34;5050830;28;20468;-76
2021/10/24 04:13:13;;;;;;;12.27;7.40;;;0.90;94.50;;;-0.74;99.00;99102.69;5039560;28;20554;-76
2021/10/24 04:15:41;;;;;;;9.53;7.03;;;0.90;94.70;;;-0.76;98.74;99101.97;5049190;28;20483;-77
2021/10/24 04:18:09;;;;;;;12.00;7.73;;;0.90;93.80;;;-0.76;99.05;99104.63;5045991;28;20455;-76
2021/10/24 04:20:36;;;;;;;15.60;6.90;;;0.90;94.00;;;-0.73;98.93;99096.41;5050723;28;20457;-76
2021/10/24 04:23:04;;;;;;;11.33;7.30;;;0.90;94.70;;;-0.74;99.13;99093.88;5049604;28;20487;-76
2021/10/24 04:25:31;;;;;;;13.63;8.00;;;0.90;94.70;;;-0.77;98.88;99102.06;5050763;28;20490;-76
2021/10/24 04:27:58;;;;;;;11.70;7.50;;;0.90;94.10;;;-0.84;99.41;99092.84;5053924;28;20467;-76
2021/10/24 04:30:25;;;;;;;10.33;6.43;;;0.80;94.00;;;-0.76;99.04;99099.31;5049972;28;20458;-75
2021/10/24 04:32:54;;;;;;;12.20;6.43;;;0.90;94.60;;;-0.79;98.93;99104.00;5047637;28;20502;-75
2021/10/24 04:35:21;;;;;;;11.57;7.77;;;0.80;94.40;;;-0.81;99.00;99098.78;5049369;28;20475;-76
2021/10/24 04:37:48;;;;;;;10.60;7.23;;;0.80;94.40;;;-0.84;98.84;99103.47;5049690;28;20551;-76
2021/10/24 04:40:16;;;;;;;8.17;7.17;;;0.80;94.00;;;-0.75;99.31;99113.41;5062388;28;20537;-76
2021/10/24 04:42:43;;;;;;;11.00;7.33;;;0.80;94.50;;;-0.81;98.75;99092.66;5042821;28;20553;-75
2021/10/24 04:45:10;;;;;;;8.90;7.10;;;0.80;93.90;;;-0.80;98.72;99104.97;5049241;28;20487;-77
2021/10/24 04:47:38;;;;;;;12.07;7.23;;;0.80;94.00;;;-0.80;98.74;99105.78;5047803;28;20570;-76
2021/10/24 04:50:08;;;;;;;8.60;7.27;;;0.80;94.30;;;-0.87;99.42;99099.25;5047639;28;20455;-76
2021/10/24 04:52:37;;;;;;;13.70;6.80;;;0.80;94.00;;;-0.82;99.48;99097.09;5051641;28;20479;-76
2021/10/24 04:55:05;;;;;;;10.37;7.10;;;0.80;94.60;;;-0.86;98.84;99093.81;5053588;28;20491;-76
2021/10/24 04:57:33;;;;;;;13.57;7.30;;;0.80;94.30;;;-0.77;98.89;99088.78;5049135;28;21038;-76
2021/10/24 05:00:00;;;;;;;12.13;7.50;;;0.80;94.60;;;-0.77;99.00;99094.09;5049003;28;20495;-76
2021/10/24 05:02:27;;;;;;;10.43;7.20;;;0.80;94.60;;;-0.77;99.29;99092.28;5050567;28;20483;-76
2021/10/24 05:04:54;;;;;;;15.90;7.17;;;0.80;94.00;;;-0.78;99.13;99097.72;5046554;28;20518;-77
2021/10/24 05:07:22;;;;;;;13.10;7.70;;;0.90;94.00;;;-0.93;99.16;99073.19;5065010;28;20547;-78
2021/10/24 05:09:49;;;;;;;11.23;8.30;;;0.80;94.20;;;-0.80;99.41;99086.38;5046866;28;20875;-77
2021/10/24 05:12:16;;;;;;;9.03;7.00;;;0.80;95.10;;;-0.79;99.63;99085.41;5048057;28;20471;-77
2021/10/24 05:14:43;;;;;;;10.17;8.63;;;0.80;94.80;;;-0.91;99.10;99077.41;5041322;28;20561;-77
2021/10/24 05:17:10;;;;;;;9.77;7.00;;;0.80;94.70;;;-0.97;99.35;99067.28;5052330;28;20491;-77
2021/10/24 05:19:38;;;;;;;11.40;7.50;;;0.80;94.60;;;-1.01;99.17;99079.06;5050134;28;20464;-77
2021/10/24 05:22:05;;;;;;;8.70;7.30;;;0.70;94.30;;;-0.87;99.76;99086.81;5045781;28;20490;-75
2021/10/24 05:24:33;;;;;;;12.00;8.30;;;0.80;95.10;;;-1.07;99.38;99056.50;5044560;28;20825;-76
2021/10/24 05:27:00;;;;;;;13.13;7.23;;;0.80;94.10;;;-0.93;98.98;99084.66;5049280;28;20515;-76
2021/10/24 05:29:27;;;;;;;10.50;8.10;;;0.70;94.40;;;-0.97;99.49;99083.19;5049261;28;20962;-76
2021/10/24 05:31:56;;;;;;;12.07;9.50;;;0.70;94.40;;;-0.93;98.82;99076.69;5047495;28;20551;-76
2021/10/24 05:34:25;;;;;;;9.13;7.50;;;0.70;94.50;;;-1.00;98.94;99067.47;5045779;28;20544;-75
2021/10/24 05:36:52;;;;;;;9.73;7.50;;;0.70;94.50;;;-0.89;98.95;99075.50;5048510;28;20463;-77
2021/10/24 05:39:20;;;;;;;12.43;6.97;;;0.70;94.60;;;-0.91;99.37;99069.47;5047567;28;20460;-76
2021/10/24 05:41:48;;;;;;;11.73;7.33;;;0.70;94.40;;;-0.90;99.23;99065.84;5045412;28;20533;-76
2021/10/24 05:44:19;;;;;;;11.77;8.47;;;0.70;94.30;;;-0.96;99.15;99068.97;5042953;28;20900;-76
2021/10/24 05:46:48;;;;;;;9.50;7.67;;;0.70;93.80;;;-0.94;98.74;99077.66;5046932;28;20459;-75
2021/10/24 05:49:16;;;;;;;9.43;6.80;;;0.70;93.70;;;-0.96;99.08;99068.97;5047542;28;21034;-76
2021/10/24 05:51:43;;;;;;;10.53;7.77;;;0.70;93.80;;;-0.95;99.01;99064.50;5047430;28;20532;-77
2021/10/24 05:54:11;;;;;;;8.90;7.23;;;0.70;93.90;;;-0.91;98.76;99076.56;5043681;28;20460;-77
2021/10/24 05:56:37;;;;;;;11.47;7.63;;;0.70;93.40;;;-0.97;98.93;99069.94;5048426;28;20487;-74
2021/10/24 05:59:06;;;;;;;7.60;6.43;;;0.70;93.90;;;-0.88;98.68;99066.56;5046142;28;20907;-74
2021/10/24 06:01:33;;;;;;;9.00;6.17;;;0.70;93.80;;;-0.86;98.45;99074.41;5047334;28;20486;-75
2021/10/24 06:04:00;;;;;;;11.10;7.60;;;0.70;93.70;;;-0.91;98.13;99077.41;5067259;28;20968;-76
2021/10/24 06:06:27;;;;;;;8.90;7.03;;;0.70;93.40;;;-1.07;98.49;99026.47;5033728;28;20540;-75
2021/10/24 06:08:54;;;;;;;11.00;6.87;;;0.80;93.60;;;-0.88;98.26;99065.72;5046045;28;21138;-75
2021/10/24 06:11:27;;;;;;;9.07;6.63;;;0.70;93.70;;;-0.83;98.36;99073.31;5048010;28;20456;-75
2021/10/24 06:13:55;;;;;;;11.67;6.93;;;0.80;93.10;;;-0.71;98.40;99080.34;5048096;28;20478;-76
2021/10/24 06:16:24;;;;;;;11.23;6.90;;;0.80;93.30;;;-0.67;97.68;99076.53;5052891;28;20513;-75
2021/10/24 06:18:51;;;;;;;9.13;6.53;;;0.90;92.50;;;-0.69;97.52;99081.09;5050975;28;21169;-74
2021/10/24 06:21:18;;;;;;;8.63;5.80;;;0.90;92.20;;;-0.63;96.93;99087.72;5053281;28;20455;-74
2021/10/24 06:23:45;;;;;;;9.90;6.87;;;0.90;92.30;;;-0.57;97.61;99082.78;5051081;28;20487;-75
2021/10/24 06:26:13;;;;;;;9.20;5.80;;;1.00;92.40;;;-0.52;97.30;99082.44;5042204;28;20553;-74
2021/10/24 06:28:40;;;;;;;9.50;6.00;;;1.00;92.20;;;-0.48;96.44;99081.25;5049480;28;20466;-73
2021/10/24 06:31:07;;;;;;;11.70;5.97;;;1.10;92.00;;;-0.39;96.25;99092.97;5045443;28;20507;-73
2021/10/24 06:33:36;;;;;;;7.97;6.43;;;1.10;91.60;;;-0.44;96.45;99085.38;5050941;28;20467;-75
2021/10/24 06:36:03;;;;;;;6.17;5.30;;;1.20;91.60;;;-0.41;96.65;99086.94;5064000;28;20495;-74
2021/10/24 06:38:31;;;;;;;12.43;6.90;;;1.20;91.70;;;-0.22;96.05;99094.31;5051078;28;20454;-74
2021/10/24 06:40:58;;;;;;;9.97;6.67;;;1.30;91.50;;;-0.30;95.30;99084.28;5039371;28;20463;-74
2021/10/24 06:43:26;;;;;;;11.17;6.20;;;1.30;90.60;;;-0.37;95.99;99090.19;5051174;28;20463;-73
2021/10/24 06:45:53;;;;;;;8.10;6.20;;;1.30;90.90;;;-0.32;96.27;99082.69;5046112;28;20473;-76
2021/10/24 06:48:20;;;;;;;8.10;6.43;;;1.30;91.10;;;-0.11;95.49;99084.66;5048354;28;20483;-75
2021/10/24 06:53:31;;;;;;;10.50;5.70;;;1.50;90.60;;;-0.10;94.90;99089.84;5164360;22;20500;-71
2021/10/24 06:55:58;;;;;;;8.97;5.50;;;1.50;89.60;;;-0.03;94.56;99079.56;5019911;28;20549;-76
2021/10/24 06:58:25;;;;;;;8.90;6.43;;;1.50;90.10;;;0.17;94.34;99093.13;5028877;28;20506;-75
2021/10/24 07:00:53;;;;;;;10.70;7.20;;;1.60;89.70;;;-0.03;93.89;99056.53;5024219;28;20577;-76
2021/10/24 07:03:20;;;;;;;8.13;5.93;;;1.70;89.40;;;0.18;93.87;99090.31;5030483;28;20503;-75
2021/10/24 07:05:48;;;;;;;8.47;5.47;;;1.80;88.40;;;0.36;93.60;99081.81;5029934;28;20914;-76
2021/10/24 07:08:15;;;;;;;9.77;5.83;;;1.90;88.60;;;0.38;93.00;99069.25;5035375;28;20512;-76
2021/10/24 07:10:43;;;;;;;6.23;4.90;;;1.90;88.10;;;0.59;92.62;99087.94;5024952;28;20465;-70
2021/10/24 07:13:11;;;;;;;10.33;5.67;;;2.10;88.00;;;0.69;92.47;99094.19;5024692;28;20481;-71
2021/10/24 07:15:38;;;;;;;6.07;5.47;;;2.20;86.60;;;0.72;92.16;99079.81;5013873;28;20493;-69
2021/10/24 07:18:05;;;;;;;9.17;6.43;;;2.20;87.20;;;0.82;91.75;99093.19;5027610;28;20472;-71
2021/10/24 07:20:32;;;;;;;7.37;5.33;;;2.40;86.40;;;0.95;91.98;99106.31;5023083;28;21069;-70
2021/10/24 07:23:00;;;;;;;5.60;5.03;;;2.40;86.90;;;1.01;92.59;99103.19;5026556;28;20507;-69
2021/10/24 07:25:27;;;;;;;6.13;5.03;;;2.40;88.20;;;1.25;90.87;99097.63;5018041;28;20480;-69
2021/10/24 07:27:55;;;;;;;7.47;4.97;;;2.60;86.10;;;1.29;89.85;99095.53;5026210;28;20502;-70
2021/10/24 07:30:22;;;;;;;11.27;5.43;;;2.70;83.50;;;1.35;89.91;99100.34;5030421;28;20465;-69
2021/10/24 07:32:49;;;;;;;6.10;5.23;;;2.80;84.20;;;1.43;91.15;99091.69;5027734;28;20470;-70
2021/10/24 07:35:16;;;;;;;5.83;5.30;;;2.80;85.70;;;1.59;89.95;99101.88;5015483;28;20452;-69
2021/10/24 07:37:44;;;;;;;7.87;4.83;;;3.00;84.80;;;1.69;89.55;99089.47;5019721;28;20500;-70
2021/10/24 07:40:13;;;;;;;6.00;4.53;;;3.10;84.20;;;1.87;87.99;99094.19;5015342;28;20490;-70
2021/10/24 07:42:41;;;;;;;7.73;5.00;;;3.20;82.30;;;2.09;86.47;99092.31;5019013;28;21099;-69
2021/10/24 07:45:11;;;;;;;6.47;4.87;;;3.40;80.40;;;2.11;86.18;99093.03;5015989;28;20465;-71
2021/10/24 07:47:39;;;;;;;8.73;4.63;;;3.50;80.60;;;2.19;87.90;99098.50;5018347;28;20535;-71
2021/10/24 07:50:10;;;;;;;5.87;5.13;;;3.60;81.70;;;2.31;87.34;99101.94;5023459;28;20508;-70
2021/10/24 07:52:39;;;;;;;8.30;4.50;;;3.70;81.50;;;2.54;83.99;99099.03;5012217;28;20568;-68
2021/10/24 07:55:07;;;;;;;6.27;4.60;;;3.90;78.60;;;2.63;84.45;99100.03;5010599;28;20852;-68
2021/10/24 07:57:35;;;;;;;5.40;4.37;;;4.00;78.70;;;2.78;84.46;99098.66;5007522;28;20965;-70
2021/10/24 08:00:02;;;;;;;5.87;4.80;;;4.10;79.00;;;2.91;82.52;99105.56;5007763;28;20457;-69
2021/10/24 08:02:32;;;;;;;5.13;4.17;;;4.30;76.60;;;2.99;81.27;99100.38;5003081;28;20572;-70
2021/10/24 08:05:00;;;;;;;11.17;4.53;;;4.30;75.50;;;3.07;81.84;99103.16;5005531;28;20520;-67
2021/10/24 08:07:27;;;;;;;5.23;4.00;;;4.40;76.10;;;3.20;81.27;99097.56;5009069;28;20484;-69
2021/10/24 08:09:54;;;;;;;9.00;4.23;;;4.50;75.40;;;3.30;80.08;99102.88;4996604;28;20459;-69
2021/10/24 08:12:23;;;;;;;5.70;4.23;;;4.60;73.40;;;3.24;80.13;99092.75;5003454;28;20456;-69
2021/10/24 08:14:51;;;;;;;6.20;3.80;;;4.70;72.80;;;3.38;79.61;99097.66;5002193;28;20480;-73
2021/10/24 08:17:18;;;;;;;4.97;3.40;;;4.70;72.40;;;3.29;78.94;99079.84;5005010;28;20568;-75
2021/10/24 08:19:46;;;;;;;6.57;3.53;;;4.80;71.90;;;3.62;77.94;99092.84;5011707;28;20459;-72
2021/10/24 08:22:13;;;;;;;5.50;3.80;;;5.00;71.40;;;3.68;80.03;99078.91;5008243;28;20535;-73
2021/10/24 08:24:41;;;;;;;8.13;4.00;;;5.00;72.70;;;3.98;78.54;99085.00;5010168;28;20946;-78
2021/10/24 08:27:08;;;;;;;7.60;3.90;;;5.20;71.90;;;4.10;77.54;99062.44;5008621;28;20457;-75
2021/10/24 08:29:35;;;;;;;11.07;5.07;;;5.40;71.50;;;4.22;78.32;99083.63;5002948;28;20533;-75
2021/10/24 08:32:05;;;;;;;6.57;3.93;;;5.50;71.10;;;4.49;76.22;99077.44;5002683;28;20463;-73
2021/10/24 08:34:34;;;;;;;18.20;6.00;;;5.70;70.10;;;4.64;78.14;99068.91;5003210;28;20470;-74
2021/10/24 08:37:03;;;;;;;3.90;3.33;;;5.90;72.30;;;4.49;76.03;99077.44;5004063;28;20553;-72
2021/10/24 08:39:30;;;;;;;6.60;4.07;;;5.90;69.00;;;4.46;75.35;99082.25;4997133;28;20979;-70
2021/10/24 08:41:58;;;;;;;7.17;4.53;;;5.90;68.30;;;4.65;76.11;99076.75;5018333;28;20556;-77
2021/10/24 08:44:25;;;;;;;5.37;3.77;;;6.00;69.00;;;4.72;75.13;99060.09;5009563;28;20453;-76
2021/10/24 08:46:53;;;;;;;5.87;4.20;;;6.10;68.30;;;5.00;75.39;99068.91;5009519;28;20460;-77
2021/10/24 08:49:21;;;;;;;7.47;4.13;;;6.30;68.60;;;4.93;75.19;99081.22;5011708;28;20453;-79
2021/10/24 08:51:49;;;;;;;8.47;4.07;;;6.30;67.70;;;4.79;74.05;99054.00;5011267;28;20478;-74
2021/10/24 08:54:27;;;;;;;7.40;5.53;;;6.30;67.40;;;5.27;75.86;99075.16;5004896;28;20574;-72
2021/10/24 08:56:55;;;;;;;5.07;3.23;;;6.50;68.80;;;5.22;73.60;99066.72;5014324;28;21029;-71
2021/10/24 08:59:22;;;;;;;5.93;3.90;;;6.60;66.50;;;5.22;73.79;99061.38;5002466;28;20460;-68
2021/10/24 09:01:51;;;;;;;9.50;4.60;;;6.60;66.40;;;5.36;74.08;99063.47;4999701;28;20489;-71
2021/10/24 09:04:18;;;;;;;5.93;3.57;;;6.60;66.90;;;5.54;72.25;99059.94;5000967;28;21783;-72
2021/10/24 09:06:48;;;;;;;9.50;4.40;;;6.80;65.90;;;5.88;72.01;99053.78;4999148;28;20466;-72
2021/10/24 09:09:19;;;;;;;5.03;4.40;;;7.10;66.70;;;6.01;72.52;99049.81;4998830;28;20452;-72
2021/10/24 09:11:56;;;;;;;5.47;4.63;;;7.20;66.80;;;6.29;70.00;99058.50;5008869;28;21036;-73
2021/10/24 09:14:41;;;;;;;5.07;4.57;;;7.50;65.20;;;6.32;69.51;99042.06;5002861;28;20475;-72
2021/10/24 09:17:11;;;;;;;5.87;4.60;;;7.60;63.80;;;6.23;69.58;99046.56;5002829;28;20491;-72
2021/10/24 09:19:40;;;;;;;8.67;4.13;;;7.60;63.60;;;6.45;67.64;99035.41;4989918;28;20462;-71
2021/10/24 09:22:20;;;;;;;4.67;3.80;;;7.70;62.30;;;6.84;65.67;99033.97;5003433;28;20507;-71
2021/10/24 09:25:20;;;;;;;6.57;4.00;;;8.00;61.00;;;7.12;67.89;99036.31;4999215;28;20553;-69
2021/10/24 09:27:51;;;;;;;5.40;3.10;;;8.30;61.60;;;7.17;63.52;99039.34;4942356;28;21354;-71
2021/10/24 09:30:22;;;;;;;5.70;3.50;;;8.40;58.60;;;7.39;61.27;99028.91;4994002;28;20531;-71
2021/10/24 09:32:53;;;;;;;4.67;3.70;;;8.60;57.00;;;7.31;61.52;99019.84;5001272;28;20994;-70
2021/10/24 09:35:25;;;;;;;7.60;3.83;;;8.70;56.80;;;7.74;62.03;99030.38;5009528;28;20458;-71
2021/10/24 09:37:52;;;;;;;4.03;3.43;;;8.90;58.00;;;7.72;60.30;99023.47;5000985;28;21016;-72
2021/10/24 09:40:29;;;;;;;5.07;2.90;;;9.00;56.00;;;7.63;59.06;99014.59;5002704;28;20444;-72
2021/10/24 09:43:18;;;;;;;4.87;3.93;;;9.00;55.20;;;7.93;60.46;99023.72;5001978;28;20461;-70
2021/10/24 09:45:48;;;;;;;3.83;3.17;;;9.10;56.50;;;8.08;58.73;99010.41;5020027;28;20511;-68
2021/10/24 09:48:18;;;;;;;5.97;3.50;;;9.30;54.60;;;8.08;56.43;99018.47;5017977;28;20820;-68
2021/10/24 09:50:50;;;;;;;4.40;2.63;;;9.30;53.20;;;8.33;56.17;99030.97;5005109;28;20472;-69
2021/10/24 09:53:21;;;;;;;5.03;3.30;;;9.50;52.90;;;8.43;56.22;99018.16;5007058;28;20587;-72
2021/10/24 09:56:07;;;;;;;5.20;3.43;;;9.60;53.50;;;8.10;55.91;98967.13;5010233;28;20530;-71
2021/10/24 09:58:37;;;;;;;5.13;2.30;;;9.60;52.40;;;8.46;54.08;99015.09;5026493;28;20463;-71
2021/10/24 10:01:06;;;;;;;4.30;2.50;;;9.70;51.50;;;8.43;54.15;99010.06;5001233;28;21910;-74
2021/10/24 10:03:37;;;;;;;3.40;2.40;;;9.70;51.20;;;8.46;53.49;99019.63;5009867;28;20512;-72
2021/10/24 10:06:05;;;;;;;5.40;3.00;;;9.70;50.80;;;8.54;53.62;99024.16;5023610;28;20517;-72
2021/10/24 10:08:32;;;;;;;3.53;2.07;;;9.70;50.80;;;8.57;52.96;99013.03;5015192;28;20459;-72
2021/10/24 10:11:06;;;;;;;2.83;2.03;;;9.80;50.60;;;8.27;53.12;98975.16;5016186;28;20471;-73
2021/10/24 10:13:38;;;;;;;5.50;2.50;;;9.80;50.30;;;8.57;53.19;99013.03;5021487;28;20478;-71
2021/10/24 10:16:10;;;;;;;4.60;2.43;;;9.80;50.30;;;8.66;52.68;99017.34;5000355;28;20494;-72
2021/10/24 10:19:04;;;;;;;5.60;2.93;;;9.90;50.20;;;8.83;52.21;99010.00;5014817;28;20859;-73
2021/10/24 10:21:36;;;;;;;1.97;1.80;;;10.00;49.20;;;8.88;52.13;99004.06;5017155;28;20463;-73
2021/10/24 10:24:06;;;;;;;2.80;2.00;;;10.10;49.10;;;8.87;51.59;99007.75;5031100;28;20462;-73
2021/10/24 10:26:43;;;;;;;3.13;2.30;;;10.10;48.70;;;8.90;51.64;99002.03;5014729;28;20445;-72
2021/10/24 10:29:13;;;;;;;4.50;2.50;;;10.10;48.60;;;9.00;51.34;99002.59;5016828;28;20466;-71
2021/10/24 10:31:42;;;;;;;3.23;2.60;;;10.20;48.30;;;9.02;51.41;99010.53;5005228;28;20869;-72
2021/10/24 10:34:11;;;;;;;4.33;2.80;;;10.30;48.50;;;9.20;51.39;98999.44;5013333;28;20480;-72